Time;durP1;ratioP1;P1;durP2;ratioP2;P2;SDS_P1;SDS_P2;PMS_P1;PMS_P2;Temp;Humidity;BMP_temperature;BMP_pressure;BME280_temperature;BME280_humidity;BME280_pressure;Samples;Min_cycle;Max_cycle;Signal;HPM_P1;HPM_P2
2023/09/09 00:02:24;;;;;;;9.55;7.72;;;;;;;17.42;100.00;97346.50;5028469;28;20068;-63
2023/09/09 00:04:54;;;;;;;10.70;7.60;;;;;;;17.56;100.00;97349.28;5026819;28;20038;-62
2023/09/09 00:07:21;;;;;;;10.10;7.90;;;;;;;17.54;100.00;97346.84;5027867;28;20736;-62
2023/09/09 00:09:49;;;;;;;11.23;8.55;;;;;;;17.62;100.00;97344.53;5026191;28;20048;-61
2023/09/09 00:12:16;;;;;;;12.93;8.95;;;;;;;17.57;100.00;97344.63;5029499;28;20045;-62
2023/09/09 00:14:42;;;;;;;13.45;8.30;;;;;;;17.41;100.00;97347.59;5026189;28;20034;-63
2023/09/09 00:17:09;;;;;;;11.30;7.90;;;;;;;17.33;100.00;97345.53;5027714;28;20045;-63
2023/09/09 00:19:35;;;;;;;11.50;8.23;;;;;;;17.39;100.00;97342.44;5025824;28;20049;-62
2023/09/09 00:22:02;;;;;;;11.90;8.10;;;;;;;17.35;100.00;97341.38;5024963;28;20611;-62
2023/09/09 00:24:28;;;;;;;11.27;8.25;;;;;;;17.22;100.00;97342.16;5026483;28;20131;-62
2023/09/09 00:26:55;;;;;;;11.57;8.40;;;;;;;17.14;100.00;97338.97;5026416;28;20053;-62
2023/09/09 00:29:22;;;;;;;10.88;8.45;;;;;;;17.15;100.00;97337.84;5023479;28;20042;-62
2023/09/09 00:31:49;;;;;;;10.70;8.40;;;;;;;17.09;100.00;97344.50;4988155;28;20050;-61
2023/09/09 00:34:16;;;;;;;10.63;8.45;;;;;;;16.84;100.00;97342.94;5012870;28;20512;-62
2023/09/09 00:36:43;;;;;;;11.57;8.68;;;;;;;16.74;100.00;97339.19;5028041;28;20038;-61
2023/09/09 00:39:10;;;;;;;12.82;7.82;;;;;;;16.73;100.00;97340.31;5026684;28;20037;-62
2023/09/09 00:41:40;;;;;;;10.63;8.07;;;;;;;16.82;100.00;97343.22;5024052;28;20128;-61
2023/09/09 00:44:08;;;;;;;10.75;8.30;;;;;;;16.77;100.00;97340.56;5027805;28;20042;-62
2023/09/09 00:46:36;;;;;;;11.88;8.75;;;;;;;16.73;100.00;97342.25;5024784;28;20277;-62
2023/09/09 00:49:03;;;;;;;11.82;8.48;;;;;;;16.77;100.00;97337.81;5026590;28;20054;-63
2023/09/09 00:51:31;;;;;;;12.82;9.13;;;;;;;16.74;100.00;97341.13;5024787;28;20115;-61
2023/09/09 00:53:58;;;;;;;12.60;8.88;;;;;;;16.78;100.00;97334.75;5025892;28;20499;-62
2023/09/09 00:56:24;;;;;;;11.25;9.18;;;;;;;16.80;100.00;97339.94;5026816;28;20444;-61
2023/09/09 00:58:51;;;;;;;11.98;8.98;;;;;;;16.68;100.00;97329.44;5023973;28;20041;-62
2023/09/09 01:01:18;;;;;;;10.98;8.93;;;;;;;16.66;100.00;97339.84;5028957;28;20046;-62
2023/09/09 01:03:45;;;;;;;11.85;8.63;;;;;;;16.74;100.00;97336.47;5058529;28;20049;-62
2023/09/09 01:06:12;;;;;;;12.25;8.77;;;;;;;16.80;100.00;97333.69;5030568;28;20045;-63
2023/09/09 01:08:39;;;;;;;10.77;8.55;;;;;;;16.76;100.00;97334.25;5024905;28;20087;-62
2023/09/09 01:11:05;;;;;;;9.77;8.13;;;;;;;16.75;100.00;97337.28;5008018;28;20484;-63
2023/09/09 01:13:32;;;;;;;12.20;8.57;;;;;;;16.70;100.00;97329.16;5027564;28;20037;-62
2023/09/09 01:16:02;;;;;;;12.52;9.25;;;;;;;16.62;100.00;97339.63;5028875;28;20114;-61
2023/09/09 01:18:31;;;;;;;13.50;8.88;;;;;;;16.56;100.00;97335.34;5029845;28;20045;-61
2023/09/09 01:21:11;;;;;;;10.68;8.80;;;;;;;16.53;100.00;97338.66;5026714;28;20045;-63
2023/09/09 01:23:38;;;;;;;12.75;8.70;;;;;;;16.42;100.00;97337.97;5024880;28;20048;-62
2023/09/09 01:26:06;;;;;;;11.05;8.65;;;;;;;16.42;100.00;97342.59;5027378;28;20065;-62
2023/09/09 01:28:32;;;;;;;11.23;8.45;;;;;;;16.33;100.00;97342.44;5026660;28;20045;-62
2023/09/09 01:30:59;;;;;;;14.15;8.98;;;;;;;16.30;100.00;97341.09;5026481;28;20048;-62
2023/09/09 01:33:25;;;;;;;12.93;9.30;;;;;;;16.29;100.00;97347.66;5031266;28;20578;-63
2023/09/09 01:35:53;;;;;;;10.35;8.68;;;;;;;16.24;100.00;97345.81;5025014;28;20543;-63
2023/09/09 01:38:20;;;;;;;12.15;8.85;;;;;;;16.24;100.00;97345.81;5025421;28;20042;-62
2023/09/09 01:40:46;;;;;;;12.30;8.88;;;;;;;16.28;100.00;97345.22;5024830;28;20044;-63
2023/09/09 01:43:13;;;;;;;10.93;8.20;;;;;;;16.22;100.00;97347.19;5027350;28;20045;-63
2023/09/09 01:45:40;;;;;;;13.07;9.00;;;;;;;16.25;100.00;97341.97;5026519;28;20457;-63
2023/09/09 01:48:06;;;;;;;11.27;9.10;;;;;;;16.32;100.00;97346.25;5010211;28;20041;-62
2023/09/09 01:50:34;;;;;;;10.45;8.32;;;;;;;16.35;100.00;97346.50;5010446;28;20572;-62
2023/09/09 01:53:03;;;;;;;12.70;8.73;;;;;;;16.41;100.00;97350.00;5010555;28;20048;-62
2023/09/09 01:55:29;;;;;;;11.10;7.88;;;;;;;16.43;100.00;97341.50;5022386;28;20049;-62
2023/09/09 01:57:56;;;;;;;11.93;8.45;;;;;;;16.41;100.00;97336.34;5026418;28;20077;-62
2023/09/09 02:00:23;;;;;;;10.82;8.10;;;;;;;16.42;100.00;97337.97;5024435;28;20638;-62
2023/09/09 02:02:50;;;;;;;13.88;8.90;;;;;;;16.48;100.00;97342.25;5008441;28;20047;-62
2023/09/09 02:05:17;;;;;;;12.40;8.95;;;;;;;16.49;100.00;97337.59;5027654;28;20551;-62
2023/09/09 02:07:43;;;;;;;10.98;8.60;;;;;;;16.50;100.00;97336.50;5020073;28;20716;-61
2023/09/09 02:10:10;;;;;;;12.05;8.68;;;;;;;16.55;100.00;97335.63;5007857;28;20033;-62
2023/09/09 02:12:39;;;;;;;11.25;8.75;;;;;;;16.62;100.00;97338.81;5023128;28;20435;-62
2023/09/09 02:15:09;;;;;;;11.60;8.63;;;;;;;16.68;100.00;97340.38;5024397;28;20519;-61
2023/09/09 02:17:36;;;;;;;11.27;9.07;;;;;;;16.70;100.00;97335.41;5025812;28;20041;-63
2023/09/09 02:20:07;;;;;;;10.93;8.85;;;;;;;16.71;100.00;97336.25;4998605;28;20041;-61
2023/09/09 02:22:33;;;;;;;10.43;8.95;;;;;;;16.63;100.00;97338.50;4981177;28;20049;-62
2023/09/09 02:25:00;;;;;;;10.50;8.65;;;;;;;16.70;100.00;97340.09;4975689;28;20045;-63
2023/09/09 02:27:27;;;;;;;11.10;8.77;;;;;;;16.68;100.00;97334.91;4996871;28;20041;-63
2023/09/09 02:29:53;;;;;;;11.55;8.68;;;;;;;16.74;100.00;97339.19;5024997;28;20119;-62
2023/09/09 02:32:20;;;;;;;12.25;8.02;;;;;;;16.71;100.00;97328.03;5021955;28;20033;-61
2023/09/09 02:34:46;;;;;;;9.93;7.53;;;;;;;16.69;100.00;97331.06;5022652;28;20045;-62
2023/09/09 02:37:19;;;;;;;11.10;7.70;;;;;;;16.56;100.00;97335.34;5025383;28;20033;-62
2023/09/09 02:39:47;;;;;;;11.93;8.52;;;;;;;16.51;100.00;97338.94;5021499;28;20037;-62
2023/09/09 02:42:19;;;;;;;10.63;8.68;;;;;;;16.54;100.00;97328.53;5022769;28;20033;-62
2023/09/09 02:44:46;;;;;;;13.90;8.88;;;;;;;16.59;100.00;97340.19;5022005;28;20098;-62
2023/09/09 02:47:13;;;;;;;11.13;8.45;;;;;;;16.55;100.00;97332.91;5022657;28;20404;-62
2023/09/09 02:49:40;;;;;;;11.20;8.15;;;;;;;16.54;100.00;97339.47;5021972;28;20124;-62
2023/09/09 02:52:07;;;;;;;11.02;7.80;;;;;;;16.54;100.00;97331.28;5021779;28;20475;-61
2023/09/09 02:54:34;;;;;;;10.15;7.53;;;;;;;16.54;100.00;97339.47;5023704;28;20049;-62
2023/09/09 02:57:03;;;;;;;11.60;8.70;;;;;;;16.55;100.00;97336.41;5022792;28;20412;-62
2023/09/09 02:59:32;;;;;;;9.65;8.23;;;;;;;16.42;100.00;97337.97;5023004;28;20097;-61
2023/09/09 03:02:00;;;;;;;13.85;9.38;;;;;;;16.25;100.00;97336.50;5014704;28;20060;-61
2023/09/09 03:04:27;;;;;;;12.45;8.90;;;;;;;15.98;100.00;97340.59;5010251;28;20048;-62
2023/09/09 03:06:54;;;;;;;13.75;9.25;;;;;;;15.78;100.00;97344.31;5024080;28;20123;-63
2023/09/09 03:09:21;;;;;;;12.93;9.38;;;;;;;15.79;100.00;97348.66;5022872;28;20101;-62
2023/09/09 03:11:48;;;;;;;13.60;9.80;;;;;;;15.79;100.00;97347.84;5021457;28;20051;-62
2023/09/09 03:14:14;;;;;;;12.45;8.63;;;;;;;15.76;100.00;97349.25;5023395;28;20048;-62
2023/09/09 03:16:41;;;;;;;11.32;8.63;;;;;;;15.75;100.00;97344.88;5022507;28;21616;-63
2023/09/09 03:19:08;;;;;;;11.18;8.73;;;;;;;15.64;100.00;97348.78;5022074;28;20703;-63
2023/09/09 03:21:34;;;;;;;11.20;9.23;;;;;;;15.43;100.00;97351.69;5022163;28;20053;-62
2023/09/09 03:24:01;;;;;;;11.45;9.02;;;;;;;15.19;100.00;97355.13;5022586;28;20055;-62
2023/09/09 03:26:28;;;;;;;12.15;9.15;;;;;;;15.21;100.00;97353.75;5024211;28;20526;-62
2023/09/09 03:28:54;;;;;;;15.70;9.95;;;;;;;15.13;100.00;97367.16;5023713;28;20063;-63
2023/09/09 03:31:21;;;;;;;12.55;9.15;;;;;;;15.02;100.00;97360.94;5022853;28;20042;-63
2023/09/09 03:33:47;;;;;;;14.82;10.02;;;;;;;14.98;100.00;97362.59;5022372;28;20041;-62
2023/09/09 03:36:14;;;;;;;12.32;9.52;;;;;;;14.94;100.00;97368.63;5021924;28;20076;-62
2023/09/09 03:38:40;;;;;;;13.32;10.23;;;;;;;14.94;100.00;97368.63;5020217;28;20041;-62
2023/09/09 03:41:07;;;;;;;13.43;10.15;;;;;;;14.99;100.00;97372.41;5020344;28;20504;-62
2023/09/09 03:43:39;;;;;;;13.52;9.38;;;;;;;15.05;100.00;97372.13;5022252;28;20045;-62
2023/09/09 03:46:07;;;;;;;13.48;9.48;;;;;;;15.27;100.00;97376.34;5021964;28;20132;-61
2023/09/09 03:48:36;;;;;;;13.23;10.13;;;;;;;15.32;100.00;97359.13;5017431;28;20562;-62
2023/09/09 03:51:03;;;;;;;12.95;9.48;;;;;;;15.47;100.00;97350.00;5014538;28;20038;-63
2023/09/09 03:53:31;;;;;;;11.93;8.95;;;;;;;15.48;100.00;97346.19;5019008;28;20423;-61
2023/09/09 03:55:59;;;;;;;14.82;9.30;;;;;;;15.27;100.00;97340.06;5019827;28;20050;-61
2023/09/09 03:58:26;;;;;;;13.70;10.13;;;;;;;15.15;100.00;97349.41;4991115;28;20053;-62
2023/09/09 04:01:10;;;;;;;13.95;10.23;;;;;;;15.04;100.00;97354.13;5022294;28;20038;-61
2023/09/09 04:03:39;;;;;;;12.88;9.43;;;;;;;15.07;100.00;97367.19;5018483;28;20045;-63
2023/09/09 04:06:11;;;;;;;13.70;9.90;;;;;;;15.13;100.00;97357.06;5020084;28;20067;-62
2023/09/09 04:08:39;;;;;;;13.32;9.63;;;;;;;15.14;100.00;97353.25;5022476;28;20379;-62
2023/09/09 04:11:07;;;;;;;13.10;9.93;;;;;;;15.21;100.00;97361.94;5021614;28;20125;-62
2023/09/09 04:13:37;;;;;;;11.90;8.88;;;;;;;15.21;100.00;97353.75;5023807;28;20095;-62
2023/09/09 04:16:06;;;;;;;12.48;9.45;;;;;;;15.34;100.00;97348.75;5019948;28;20068;-61
2023/09/09 04:18:33;;;;;;;14.30;9.18;;;;;;;15.34;100.00;97354.22;5022093;28;20047;-62
2023/09/09 04:21:13;;;;;;;13.80;9.55;;;;;;;15.39;100.00;97348.72;5020869;28;20034;-62
2023/09/09 04:23:40;;;;;;;12.73;9.95;;;;;;;15.40;100.00;97346.81;5022675;28;20041;-61
2023/09/09 04:26:07;;;;;;;12.15;10.05;;;;;;;15.49;100.00;97345.09;5004787;28;20129;-62
2023/09/09 04:28:34;;;;;;;14.85;10.10;;;;;;;15.44;100.00;97347.88;5021084;28;20045;-62
2023/09/09 04:31:00;;;;;;;13.20;9.65;;;;;;;15.38;100.00;97351.72;5021786;28;20068;-62
2023/09/09 04:33:28;;;;;;;12.45;10.30;;;;;;;15.35;100.00;97355.84;5021519;28;20103;-62
2023/09/09 04:35:55;;;;;;;13.13;10.25;;;;;;;15.45;100.00;97357.69;5006891;28;20045;-63
2023/09/09 04:38:23;;;;;;;11.93;9.30;;;;;;;15.43;100.00;97365.31;5021581;28;20052;-63
2023/09/09 04:40:50;;;;;;;12.25;10.05;;;;;;;15.43;100.00;97365.31;5021340;28;20036;-62
2023/09/09 04:43:17;;;;;;;13.20;9.88;;;;;;;15.45;100.00;97361.22;5029384;28;20058;-62
2023/09/09 04:45:44;;;;;;;12.82;9.95;;;;;;;15.43;100.00;97366.16;5028195;28;20152;-63
2023/09/09 04:48:11;;;;;;;14.75;10.80;;;;;;;15.36;100.00;97362.91;5021892;28;20038;-63
2023/09/09 04:50:38;;;;;;;12.30;10.10;;;;;;;15.37;100.00;97358.28;5025747;28;20136;-61
2023/09/09 04:53:05;;;;;;;11.90;9.75;;;;;;;15.48;100.00;97363.38;5026175;28;20049;-63
2023/09/09 04:55:32;;;;;;;13.35;9.60;;;;;;;15.50;100.00;97356.81;5057842;28;20103;-62
2023/09/09 04:58:00;;;;;;;13.40;9.48;;;;;;;15.53;100.00;97358.97;5023742;28;20052;-62
2023/09/09 05:00:27;;;;;;;12.48;9.27;;;;;;;15.65;100.00;97356.69;5026693;28;20045;-62
2023/09/09 05:02:53;;;;;;;13.75;9.65;;;;;;;15.60;100.00;97365.72;5024103;28;20123;-62
2023/09/09 05:05:20;;;;;;;16.15;9.60;;;;;;;15.72;100.00;97370.00;5022508;28;20053;-61
2023/09/09 05:07:46;;;;;;;12.38;9.43;;;;;;;15.64;100.00;97356.97;5023202;28;20536;-61
2023/09/09 05:10:13;;;;;;;13.10;9.75;;;;;;;15.60;100.00;97364.94;5022670;28;20735;-63
2023/09/09 05:12:40;;;;;;;12.45;8.90;;;;;;;15.79;100.00;97358.75;5055560;28;20049;-63
2023/09/09 05:15:13;;;;;;;12.05;9.85;;;;;;;15.83;100.00;97360.66;5025896;28;20056;-62
2023/09/09 05:17:40;;;;;;;13.60;9.25;;;;;;;15.88;100.00;97364.44;5022834;28;20081;-63
2023/09/09 05:20:07;;;;;;;11.07;8.90;;;;;;;16.00;100.00;97367.63;5023777;28;20578;-62
2023/09/09 05:22:34;;;;;;;12.15;8.88;;;;;;;15.98;100.00;97364.34;5022393;28;20069;-62
2023/09/09 05:25:00;;;;;;;14.75;10.45;;;;;;;15.89;100.00;97364.16;5028252;28;20077;-61
2023/09/09 05:27:29;;;;;;;14.98;9.60;;;;;;;15.93;100.00;97369.84;5024032;28;20544;-62
2023/09/09 05:29:55;;;;;;;13.07;9.57;;;;;;;15.69;100.00;97365.94;5003883;28;20523;-61
2023/09/09 05:32:22;;;;;;;12.07;9.65;;;;;;;15.51;100.00;97375.63;5023725;28;20467;-63
2023/09/09 05:34:49;;;;;;;12.40;10.20;;;;;;;15.43;100.00;97376.22;5019512;28;20046;-62
2023/09/09 05:37:16;;;;;;;11.75;9.73;;;;;;;15.39;100.00;97383.34;5022421;28;20045;-61
2023/09/09 05:39:42;;;;;;;13.55;10.90;;;;;;;15.38;100.00;97387.19;5006009;28;20118;-62
2023/09/09 05:42:09;;;;;;;13.48;10.48;;;;;;;15.43;100.00;97387.97;5020963;28;20034;-61
2023/09/09 05:44:36;;;;;;;13.85;10.52;;;;;;;15.49;100.00;97391.47;5024518;28;20057;-63
2023/09/09 05:47:06;;;;;;;17.45;10.93;;;;;;;15.60;100.00;97386.78;5022977;28;20115;-62
2023/09/09 05:49:34;;;;;;;13.10;10.32;;;;;;;15.76;100.00;97389.34;5021633;28;20060;-63
2023/09/09 05:52:07;;;;;;;13.32;10.50;;;;;;;15.80;100.00;97393.16;5036709;28;20034;-62
2023/09/09 05:54:34;;;;;;;15.05;10.73;;;;;;;15.88;100.00;97392.53;5018935;28;20054;-62
2023/09/09 05:57:01;;;;;;;11.88;10.02;;;;;;;15.89;100.00;97394.19;5008678;28;20098;-61
2023/09/09 05:59:28;;;;;;;11.93;10.18;;;;;;;15.99;100.00;97396.00;5021695;28;20065;-62
2023/09/09 06:01:55;;;;;;;12.73;9.85;;;;;;;16.10;100.00;97394.84;5020824;28;20145;-61
2023/09/09 06:04:22;;;;;;;12.15;9.32;;;;;;;16.19;100.00;97391.47;5007064;28;20049;-62
2023/09/09 06:06:49;;;;;;;14.10;10.10;;;;;;;16.28;100.00;97400.66;5020181;28;20049;-63
2023/09/09 06:09:16;;;;;;;11.88;10.10;;;;;;;16.36;100.00;97394.56;5022023;28;20049;-62
2023/09/09 06:11:42;;;;;;;12.85;10.27;;;;;;;16.47;100.00;97395.28;5022625;28;20124;-62
2023/09/09 06:14:09;;;;;;;12.55;9.18;;;;;;;16.58;100.00;97395.19;5021403;28;20044;-62
2023/09/09 06:16:36;;;;;;;12.15;9.65;;;;;;;16.68;100.00;97394.22;5021777;28;20099;-61
2023/09/09 06:19:02;;;;;;;13.90;10.05;;;;;;;16.79;100.00;97398.47;5023826;28;20045;-61
2023/09/09 06:21:29;;;;;;;13.15;9.88;;;;;;;16.89;100.00;97403.81;5026064;28;20080;-63
2023/09/09 06:23:56;;;;;;;12.20;9.65;;;;;;;17.03;100.00;97408.59;5027407;28;20045;-62
2023/09/09 06:26:24;;;;;;;12.93;10.00;;;;;;;17.15;100.00;97411.72;5023369;28;20045;-62
2023/09/09 06:28:51;;;;;;;13.65;9.93;;;;;;;17.23;100.00;97410.25;5024642;28;20072;-62
2023/09/09 06:31:18;;;;;;;12.02;8.82;;;;;;;17.33;100.00;97406.56;5021547;28;20133;-62
2023/09/09 06:33:45;;;;;;;11.13;9.20;;;;;;;17.44;100.00;97401.75;5023178;28;20111;-61
2023/09/09 06:36:12;;;;;;;12.77;8.63;;;;;;;17.55;100.00;97402.41;5020332;28;20076;-62
2023/09/09 06:38:41;;;;;;;11.85;8.88;;;;;;;17.70;100.00;97406.00;5021288;28;20050;-62
2023/09/09 06:41:07;;;;;;;11.75;9.38;;;;;;;17.80;100.00;97412.16;5022371;28;20455;-61
2023/09/09 06:43:34;;;;;;;11.50;8.80;;;;;;;17.88;100.00;97413.38;5024074;28;20083;-62
2023/09/09 06:46:01;;;;;;;11.57;8.13;;;;;;;17.99;100.00;97416.75;5024573;28;20569;-62
2023/09/09 06:48:29;;;;;;;10.25;8.60;;;;;;;18.11;100.00;97418.25;5023428;28;20040;-62
2023/09/09 06:50:56;;;;;;;11.60;8.65;;;;;;;18.22;100.00;97418.88;5027534;28;20033;-63
2023/09/09 06:53:24;;;;;;;13.90;8.75;;;;;;;18.35;100.00;97418.09;5024544;28;20451;-62
2023/09/09 06:55:51;;;;;;;10.15;8.00;;;;;;;18.48;100.00;97416.50;5026267;28;20052;-62
2023/09/09 06:58:18;;;;;;;11.60;7.45;;;;;;;18.63;100.00;97423.63;5024300;28;20713;-61
2023/09/09 07:00:52;;;;;;;9.30;7.43;;;;;;;18.81;100.00;97419.16;5023657;28;20456;-61
2023/09/09 07:03:19;;;;;;;9.82;7.60;;;;;;;18.98;100.00;97418.53;5021628;28;20037;-61
2023/09/09 07:05:46;;;;;;;11.02;7.65;;;;;;;19.12;100.00;97425.16;5021211;28;20039;-62
2023/09/09 07:08:13;;;;;;;9.55;7.63;;;;;;;19.29;100.00;97421.78;5020575;28;20043;-62
2023/09/09 07:10:48;;;;;;;9.50;7.38;;;;;;;19.46;100.00;97430.16;5021167;28;20037;-61
2023/09/09 07:13:14;;;;;;;8.23;6.85;;;;;;;19.59;100.00;97427.69;5021694;28;20069;-62
2023/09/09 07:15:41;;;;;;;9.23;7.15;;;;;;;19.71;100.00;97416.16;5024087;28;20554;-61
2023/09/09 07:18:07;;;;;;;10.98;7.90;;;;;;;19.91;100.00;97425.84;5023818;28;20046;-62
2023/09/09 07:20:34;;;;;;;8.60;7.00;;;;;;;20.03;100.00;97422.56;5019511;28;20049;-62
2023/09/09 07:23:01;;;;;;;11.38;7.53;;;;;;;20.07;100.00;97423.56;5022593;28;20058;-63
2023/09/09 07:25:27;;;;;;;10.45;6.90;;;;;;;20.11;100.00;97430.06;5021821;28;20083;-62
2023/09/09 07:27:54;;;;;;;7.88;6.28;;;;;;;20.14;100.00;97431.34;5021605;28;20706;-63
2023/09/09 07:30:20;;;;;;;9.20;6.22;;;;;;;20.17;100.00;97430.75;5020049;28;20110;-65
2023/09/09 07:32:48;;;;;;;8.40;6.70;;;;;;;20.42;100.00;97433.97;5019510;28;20144;-64
2023/09/09 07:35:14;;;;;;;8.73;6.35;;;;;;;20.52;100.00;97430.09;5022102;28;20045;-59
2023/09/09 07:37:41;;;;;;;10.45;6.22;;;;;;;20.61;99.30;97430.16;5020865;28;20041;-63
2023/09/09 07:40:08;;;;;;;7.82;6.07;;;;;;;20.71;98.60;97420.81;5023722;28;20076;-63
2023/09/09 07:42:35;;;;;;;8.13;5.22;;;;;;;20.77;97.75;97427.78;5021212;28;20042;-63
2023/09/09 07:45:01;;;;;;;7.47;5.78;;;;;;;20.89;97.34;97421.69;5020361;28;20045;-63
2023/09/09 07:47:28;;;;;;;7.97;6.00;;;;;;;21.00;96.48;97427.72;5020902;28;20132;-63
2023/09/09 07:49:54;;;;;;;7.35;6.35;;;;;;;21.22;94.81;97429.56;5020705;28;20052;-63
2023/09/09 07:52:21;;;;;;;9.02;6.68;;;;;;;21.45;93.13;97432.19;5020438;28;20041;-64
2023/09/09 07:54:49;;;;;;;8.55;5.63;;;;;;;21.51;92.67;97428.16;5020333;28;20041;-64
2023/09/09 07:57:15;;;;;;;8.13;5.78;;;;;;;21.57;91.95;97432.34;5022446;28;20103;-65
2023/09/09 07:59:42;;;;;;;12.10;6.03;;;;;;;21.63;91.75;97424.75;5020047;28;20124;-63
2023/09/09 08:02:08;;;;;;;9.98;6.15;;;;;;;21.74;91.12;97435.47;5020869;28;20041;-64
2023/09/09 08:04:35;;;;;;;7.88;5.85;;;;;;;21.77;90.42;97430.13;5020453;28;20426;-64
2023/09/09 08:07:01;;;;;;;8.20;6.43;;;;;;;21.90;91.61;97441.31;5026298;28;20041;-63
2023/09/09 08:09:28;;;;;;;10.30;7.10;;;;;;;22.07;92.20;97444.03;5018639;28;20047;-64
2023/09/09 08:11:55;;;;;;;9.60;6.88;;;;;;;22.16;90.90;97445.97;5019248;28;20037;-63
2023/09/09 08:14:21;;;;;;;7.88;6.28;;;;;;;22.21;91.12;97448.56;5021042;28;20058;-63
2023/09/09 08:16:48;;;;;;;9.82;7.07;;;;;;;22.31;90.58;97442.72;5024602;28;20046;-63
2023/09/09 08:19:16;;;;;;;8.43;6.10;;;;;;;22.43;90.48;97446.72;5021523;28;20045;-64
2023/09/09 08:21:42;;;;;;;9.15;6.10;;;;;;;22.46;90.20;97446.91;5017304;28;20036;-63
2023/09/09 08:24:09;;;;;;;8.55;6.57;;;;;;;22.65;90.04;97451.25;5022839;28;20047;-64
2023/09/09 08:26:36;;;;;;;7.30;6.10;;;;;;;22.77;87.63;97449.75;5025936;28;20049;-63
2023/09/09 08:29:03;;;;;;;7.50;5.90;;;;;;;22.81;86.97;97454.25;5024578;28;20041;-64
2023/09/09 08:31:30;;;;;;;6.50;5.70;;;;;;;22.84;86.52;97453.59;5023328;28;20713;-64
2023/09/09 08:33:57;;;;;;;6.63;5.57;;;;;;;22.91;85.68;97457.78;5022574;28;20080;-62
2023/09/09 08:36:27;;;;;;;7.88;5.95;;;;;;;22.98;85.83;97453.38;5026046;28;20602;-63
2023/09/09 08:38:56;;;;;;;10.68;5.32;;;;;;;23.06;85.11;97457.22;5021384;28;20049;-63
2023/09/09 08:41:29;;;;;;;8.55;5.82;;;;;;;23.15;84.87;97457.19;5028502;28;20077;-64
2023/09/09 08:44:08;;;;;;;9.50;5.32;;;;;;;23.25;84.50;97456.81;5024631;28;20067;-65
2023/09/09 08:46:35;;;;;;;8.50;5.75;;;;;;;23.36;82.18;97451.72;5024127;28;20065;-64
2023/09/09 08:49:04;;;;;;;7.93;6.13;;;;;;;23.48;81.65;97467.56;5023650;28;20052;-64
2023/09/09 08:51:38;;;;;;;7.75;5.47;;;;;;;23.49;80.00;97469.22;5026795;28;20037;-63
2023/09/09 08:54:07;;;;;;;8.30;5.45;;;;;;;23.54;77.44;97464.63;5024582;28;20056;-65
2023/09/09 08:56:33;;;;;;;7.25;5.57;;;;;;;23.58;77.04;97469.13;5055555;28;20056;-65
2023/09/09 08:59:00;;;;;;;7.75;5.68;;;;;;;23.62;76.63;97461.00;5022059;28;20049;-64
2023/09/09 09:01:27;;;;;;;8.18;5.10;;;;;;;23.80;74.37;97463.63;5023526;28;20052;-64
2023/09/09 09:03:54;;;;;;;9.88;5.30;;;;;;;23.97;73.08;97460.72;5023599;28;20064;-64
2023/09/09 09:06:22;;;;;;;7.65;5.30;;;;;;;24.04;72.55;97466.47;5026705;28;20042;-63
2023/09/09 09:08:49;;;;;;;7.75;5.35;;;;;;;24.12;71.92;97464.00;5023694;28;20072;-63
2023/09/09 09:11:18;;;;;;;8.40;4.93;;;;;;;24.13;70.89;97460.09;5021797;28;20040;-62
2023/09/09 09:13:47;;;;;;;7.20;5.35;;;;;;;24.13;70.44;97465.63;5023222;28;20053;-63
2023/09/09 09:16:13;;;;;;;6.45;4.82;;;;;;;24.13;69.53;97471.97;5024390;28;20037;-63
2023/09/09 09:18:40;;;;;;;7.00;4.93;;;;;;;24.17;69.35;97469.31;5022776;28;20133;-63
2023/09/09 09:21:10;;;;;;;13.50;6.60;;;;;;;24.25;68.40;97465.66;5023603;28;20120;-62
2023/09/09 09:23:44;;;;;;;7.47;5.22;;;;;;;24.26;68.86;97467.31;5021912;28;20046;-63
2023/09/09 09:26:31;;;;;;;7.68;5.25;;;;;;;24.25;69.40;97473.19;5024366;28;20046;-63
2023/09/09 09:29:06;;;;;;;10.07;5.57;;;;;;;24.29;69.77;97463.06;5024131;28;20578;-63
2023/09/09 09:31:33;;;;;;;6.47;5.10;;;;;;;24.40;70.47;97464.22;5022749;28;20041;-63
2023/09/09 09:33:59;;;;;;;9.80;5.95;;;;;;;24.44;70.54;97461.59;5023193;28;20049;-63
2023/09/09 09:36:27;;;;;;;10.15;5.00;;;;;;;24.37;68.79;97461.34;5022400;28;20034;-65
2023/09/09 09:38:54;;;;;;;8.57;5.72;;;;;;;24.53;69.58;97448.47;5022880;28;20116;-65
2023/09/09 09:41:22;;;;;;;10.80;5.80;;;;;;;24.58;70.69;97457.69;5023064;28;20037;-64
2023/09/09 09:43:50;;;;;;;8.20;5.43;;;;;;;24.57;70.39;97458.84;5022843;28;20042;-63
2023/09/09 09:46:19;;;;;;;7.35;5.20;;;;;;;24.51;69.02;97455.50;5023279;28;20045;-63
2023/09/09 09:48:46;;;;;;;7.65;5.22;;;;;;;24.50;69.35;97453.84;5020688;28;20041;-63
2023/09/09 09:51:13;;;;;;;7.13;5.45;;;;;;;24.62;68.76;97451.13;5022138;28;20804;-64
2023/09/09 09:53:49;;;;;;;10.98;5.57;;;;;;;24.75;70.85;97451.13;5022165;28;20053;-64
2023/09/09 09:56:17;;;;;;;8.90;5.88;;;;;;;24.88;70.81;97443.69;5022284;28;20037;-63
2023/09/09 09:58:45;;;;;;;8.07;5.60;;;;;;;25.02;69.28;97451.66;5021067;28;20596;-63
2023/09/09 10:01:12;;;;;;;8.35;5.30;;;;;;;25.06;69.24;97445.06;5020881;28;20053;-64
2023/09/09 10:03:43;;;;;;;7.22;5.43;;;;;;;25.15;68.43;97446.91;5018742;28;20709;-63
2023/09/09 10:06:12;;;;;;;10.38;5.28;;;;;;;25.18;68.60;97452.56;5020139;28;20069;-62
2023/09/09 10:08:45;;;;;;;9.38;5.68;;;;;;;25.27;67.99;97449.69;5024298;28;20325;-63
2023/09/09 10:11:17;;;;;;;8.75;5.63;;;;;;;25.29;66.76;97447.38;5017826;28;20046;-63
2023/09/09 10:13:52;;;;;;;10.43;5.60;;;;;;;25.30;66.07;97451.75;5022247;28;20041;-64
2023/09/09 10:16:20;;;;;;;8.35;5.63;;;;;;;25.21;66.28;97456.63;5027926;28;20041;-63
2023/09/09 10:18:49;;;;;;;10.60;4.78;;;;;;;25.22;65.67;97451.88;5021232;28;20041;-63
2023/09/09 10:21:17;;;;;;;7.57;5.60;;;;;;;25.26;66.18;97458.34;5023074;28;20579;-63
2023/09/09 10:24:03;;;;;;;7.78;4.82;;;;;;;25.29;65.48;97450.16;5022921;28;20033;-63
2023/09/09 10:26:30;;;;;;;8.23;4.97;;;;;;;25.32;65.05;97449.44;5023878;28;20041;-63
2023/09/09 10:28:59;;;;;;;7.32;4.80;;;;;;;25.30;64.29;97448.16;5023918;28;20049;-63
2023/09/09 10:31:28;;;;;;;8.30;5.07;;;;;;;25.33;64.20;97442.72;5027269;28;20081;-64
2023/09/09 10:33:56;;;;;;;6.47;4.40;;;;;;;25.43;65.20;97446.19;5020932;28;20055;-64
2023/09/09 10:36:27;;;;;;;10.73;5.07;;;;;;;25.45;63.92;97447.47;5023798;28;20578;-63
2023/09/09 10:38:58;;;;;;;7.40;5.00;;;;;;;25.55;64.09;97451.72;5021935;28;20041;-64
2023/09/09 10:41:24;;;;;;;6.05;4.88;;;;;;;25.61;63.27;97452.28;5024833;28;20125;-63
2023/09/09 10:43:51;;;;;;;8.02;4.47;;;;;;;25.66;62.92;97442.94;5023566;28;20033;-64
2023/09/09 10:46:32;;;;;;;7.07;5.22;;;;;;;25.65;61.38;97444.09;5027591;28;20049;-63
2023/09/09 10:49:02;;;;;;;;;;;;;;;25.72;61.79;97444.28;5021616;28;20524;-63
2023/09/09 10:51:42;;;;;;;6.32;4.90;;;;;;;25.77;61.67;97441.31;5020782;28;19924;-63
2023/09/09 10:54:09;;;;;;;6.18;4.45;;;;;;;25.89;61.04;97442.41;5017879;28;20047;-64
2023/09/09 10:56:45;;;;;;;7.65;4.55;;;;;;;26.03;61.17;97442.81;5021216;28;20049;-63
2023/09/09 10:59:31;;;;;;;6.32;4.72;;;;;;;26.12;60.23;97444.63;5019795;28;20065;-63
2023/09/09 11:02:18;;;;;;;9.10;4.95;;;;;;;26.14;60.03;97451.44;5019745;28;20643;-64
2023/09/09 11:05:10;;;;;;;7.28;4.82;;;;;;;26.23;60.07;97442.94;5021285;28;20131;-64
2023/09/09 11:07:44;;;;;;;6.50;4.10;;;;;;;26.21;59.63;97445.28;5009267;28;20073;-63
2023/09/09 11:10:17;;;;;;;8.98;5.05;;;;;;;26.18;59.09;97444.03;5005726;28;20052;-64
2023/09/09 11:12:52;;;;;;;8.90;4.50;;;;;;;26.26;59.70;97436.72;5021916;28;20037;-63
2023/09/09 11:15:24;;;;;;;6.65;4.60;;;;;;;26.32;59.97;97435.28;5020931;28;20045;-60
2023/09/09 11:17:51;;;;;;;9.00;5.05;;;;;;;26.47;59.47;97442.03;5023426;28;20133;-63
2023/09/09 11:20:20;;;;;;;8.93;4.65;;;;;;;26.58;58.88;97439.56;5025473;28;20041;-63
2023/09/09 11:22:47;;;;;;;8.10;4.75;;;;;;;26.74;58.01;97441.50;5007219;28;20169;-63
2023/09/09 11:25:15;;;;;;;6.30;4.28;;;;;;;26.69;57.94;97433.47;5004607;28;20054;-64
2023/09/09 11:27:43;;;;;;;8.18;4.40;;;;;;;26.70;57.57;97438.66;5023993;28;20103;-64